sensor_id;sensor_type;location;lat;lon;timestamp;P1;durP1;ratioP1;P2;durP2;ratioP2
52450;SDS011;38366;53.176;6.540;2023-03-21T00:00:27;23.00;;;8.18;;
52450;SDS011;38366;53.176;6.540;2023-03-21T00:02:52;21.60;;;8.30;;
52450;SDS011;38366;53.176;6.540;2023-03-21T00:05:18;23.87;;;8.37;;
52450;SDS011;38366;53.176;6.540;2023-03-21T00:10:11;25.95;;;8.35;;
52450;SDS011;38366;53.176;6.540;2023-03-21T00:12:36;16.50;;;7.80;;
52450;SDS011;38366;53.176;6.540;2023-03-21T00:15:06;22.63;;;7.50;;
52450;SDS011;38366;53.176;6.540;2023-03-21T00:17:33;19.33;;;7.70;;
52450;SDS011;38366;53.176;6.540;2023-03-21T00:22:28;16.63;;;6.68;;
52450;SDS011;38366;53.176;6.540;2023-03-21T00:24:54;19.13;;;7.13;;
52450;SDS011;38366;53.176;6.540;2023-03-21T00:27:20;18.90;;;6.88;;
52450;SDS011;38366;53.176;6.540;2023-03-21T00:29:46;20.15;;;8.07;;
52450;SDS011;38366;53.176;6.540;2023-03-21T00:32:13;26.38;;;8.75;;
52450;SDS011;38366;53.176;6.540;2023-03-21T00:34:40;23.20;;;8.20;;
52450;SDS011;38366;53.176;6.540;2023-03-21T00:39:33;27.55;;;9.02;;
52450;SDS011;38366;53.176;6.540;2023-03-21T00:44:25;32.10;;;9.98;;
52450;SDS011;38366;53.176;6.540;2023-03-21T00:46:50;34.72;;;8.88;;
52450;SDS011;38366;53.176;6.540;2023-03-21T00:49:16;37.67;;;10.00;;
52450;SDS011;38366;53.176;6.540;2023-03-21T00:51:44;65.90;;;14.60;;
52450;SDS011;38366;53.176;6.540;2023-03-21T00:54:10;69.32;;;12.05;;
52450;SDS011;38366;53.176;6.540;2023-03-21T00:56:37;67.07;;;12.70;;
52450;SDS011;38366;53.176;6.540;2023-03-21T00:59:03;77.97;;;14.77;;
52450;SDS011;38366;53.176;6.540;2023-03-21T01:01:29;59.90;;;13.45;;
52450;SDS011;38366;53.176;6.540;2023-03-21T01:03:58;46.70;;;11.15;;
52450;SDS011;38366;53.176;6.540;2023-03-21T01:06:31;77.97;;;14.88;;
52450;SDS011;38366;53.176;6.540;2023-03-21T01:09:03;91.57;;;15.55;;
52450;SDS011;38366;53.176;6.540;2023-03-21T01:11:30;78.05;;;15.48;;
52450;SDS011;38366;53.176;6.540;2023-03-21T01:13:56;71.00;;;14.00;;
52450;SDS011;38366;53.176;6.540;2023-03-21T01:16:23;74.40;;;14.48;;
52450;SDS011;38366;53.176;6.540;2023-03-21T01:21:15;62.67;;;12.13;;
52450;SDS011;38366;53.176;6.540;2023-03-21T01:23:41;62.40;;;12.27;;
52450;SDS011;38366;53.176;6.540;2023-03-21T01:26:07;59.00;;;12.85;;
52450;SDS011;38366;53.176;6.540;2023-03-21T01:28:34;76.85;;;15.13;;
52450;SDS011;38366;53.176;6.540;2023-03-21T01:31:02;71.97;;;14.50;;
52450;SDS011;38366;53.176;6.540;2023-03-21T01:33:29;46.00;;;12.20;;
52450;SDS011;38366;53.176;6.540;2023-03-21T01:35:55;42.47;;;10.30;;
52450;SDS011;38366;53.176;6.540;2023-03-21T01:38:20;42.05;;;10.50;;
52450;SDS011;38366;53.176;6.540;2023-03-21T01:40:47;39.50;;;10.60;;
52450;SDS011;38366;53.176;6.540;2023-03-21T01:43:20;30.55;;;8.70;;
52450;SDS011;38366;53.176;6.540;2023-03-21T01:48:45;38.08;;;10.55;;
52450;SDS011;38366;53.176;6.540;2023-03-21T01:51:14;37.55;;;10.20;;
52450;SDS011;38366;53.176;6.540;2023-03-21T01:53:41;40.75;;;11.32;;
52450;SDS011;38366;53.176;6.540;2023-03-21T01:56:11;37.70;;;10.52;;
52450;SDS011;38366;53.176;6.540;2023-03-21T01:59:08;32.72;;;10.80;;
52450;SDS011;38366;53.176;6.540;2023-03-21T02:01:38;36.63;;;10.68;;
52450;SDS011;38366;53.176;6.540;2023-03-21T02:04:06;42.03;;;11.60;;
52450;SDS011;38366;53.176;6.540;2023-03-21T02:06:42;30.45;;;9.50;;
52450;SDS011;38366;53.176;6.540;2023-03-21T02:09:19;40.65;;;11.75;;
52450;SDS011;38366;53.176;6.540;2023-03-21T02:11:49;25.30;;;8.43;;
52450;SDS011;38366;53.176;6.540;2023-03-21T02:14:16;34.42;;;11.18;;
52450;SDS011;38366;53.176;6.540;2023-03-21T02:16:59;34.88;;;10.52;;
52450;SDS011;38366;53.176;6.540;2023-03-21T02:38:53;33.78;;;11.57;;
52450;SDS011;38366;53.176;6.540;2023-03-21T02:41:31;26.15;;;10.25;;
52450;SDS011;38366;53.176;6.540;2023-03-21T02:44:28;31.27;;;11.18;;
52450;SDS011;38366;53.176;6.540;2023-03-21T02:47:08;26.13;;;10.70;;
52450;SDS011;38366;53.176;6.540;2023-03-21T02:52:25;25.67;;;10.88;;
52450;SDS011;38366;53.176;6.540;2023-03-21T02:54:56;25.98;;;10.50;;
52450;SDS011;38366;53.176;6.540;2023-03-21T02:57:23;25.42;;;9.88;;
52450;SDS011;38366;53.176;6.540;2023-03-21T02:59:49;20.73;;;9.48;;
52450;SDS011;38366;53.176;6.540;2023-03-21T03:02:18;24.65;;;10.50;;
52450;SDS011;38366;53.176;6.540;2023-03-21T03:04:47;23.50;;;10.50;;
52450;SDS011;38366;53.176;6.540;2023-03-21T03:15:34;23.35;;;10.35;;
52450;SDS011;38366;53.176;6.540;2023-03-21T03:19:04;23.25;;;10.70;;
52450;SDS011;38366;53.176;6.540;2023-03-21T03:22:05;22.40;;;9.90;;
52450;SDS011;38366;53.176;6.540;2023-03-21T03:24:11;23.77;;;9.98;;
52450;SDS011;38366;53.176;6.540;2023-03-21T03:26:57;22.27;;;10.38;;
52450;SDS011;38366;53.176;6.540;2023-03-21T03:29:27;24.70;;;10.10;;
52450;SDS011;38366;53.176;6.540;2023-03-21T03:32:02;20.58;;;9.25;;
52450;SDS011;38366;53.176;6.540;2023-03-21T03:34:34;21.70;;;10.15;;
52450;SDS011;38366;53.176;6.540;2023-03-21T03:37:05;21.48;;;9.85;;
52450;SDS011;38366;53.176;6.540;2023-03-21T03:39:35;24.27;;;10.68;;
52450;SDS011;38366;53.176;6.540;2023-03-21T03:42:12;20.75;;;9.50;;
52450;SDS011;38366;53.176;6.540;2023-03-21T03:44:44;22.17;;;9.57;;
52450;SDS011;38366;53.176;6.540;2023-03-21T03:47:11;19.00;;;8.48;;
52450;SDS011;38366;53.176;6.540;2023-03-21T03:49:47;21.20;;;9.18;;
52450;SDS011;38366;53.176;6.540;2023-03-21T03:52:25;22.60;;;9.75;;
52450;SDS011;38366;53.176;6.540;2023-03-21T03:54:55;24.30;;;10.13;;
52450;SDS011;38366;53.176;6.540;2023-03-21T03:57:23;20.42;;;8.05;;
52450;SDS011;38366;53.176;6.540;2023-03-21T03:59:51;23.42;;;10.40;;
52450;SDS011;38366;53.176;6.540;2023-03-21T04:02:17;24.75;;;10.57;;
52450;SDS011;38366;53.176;6.540;2023-03-21T04:04:44;23.27;;;9.25;;
52450;SDS011;38366;53.176;6.540;2023-03-21T04:07:11;20.83;;;8.32;;
52450;SDS011;38366;53.176;6.540;2023-03-21T04:09:37;47.50;;;11.50;;
52450;SDS011;38366;53.176;6.540;2023-03-21T04:12:03;23.77;;;9.13;;
52450;SDS011;38366;53.176;6.540;2023-03-21T04:14:28;20.00;;;8.70;;
52450;SDS011;38366;53.176;6.540;2023-03-21T04:16:54;14.93;;;7.30;;
52450;SDS011;38366;53.176;6.540;2023-03-21T04:19:20;18.05;;;8.20;;
52450;SDS011;38366;53.176;6.540;2023-03-21T04:21:45;17.08;;;7.28;;
52450;SDS011;38366;53.176;6.540;2023-03-21T04:24:12;24.17;;;7.82;;
52450;SDS011;38366;53.176;6.540;2023-03-21T04:26:39;21.25;;;8.38;;
52450;SDS011;38366;53.176;6.540;2023-03-21T04:29:05;20.83;;;7.95;;
52450;SDS011;38366;53.176;6.540;2023-03-21T04:31:31;17.30;;;6.65;;
52450;SDS011;38366;53.176;6.540;2023-03-21T04:33:58;16.02;;;7.07;;
52450;SDS011;38366;53.176;6.540;2023-03-21T04:36:25;20.45;;;7.15;;
52450;SDS011;38366;53.176;6.540;2023-03-21T04:38:55;17.02;;;6.38;;
52450;SDS011;38366;53.176;6.540;2023-03-21T04:41:28;20.70;;;7.43;;
52450;SDS011;38366;53.176;6.540;2023-03-21T04:43:54;14.45;;;6.30;;
52450;SDS011;38366;53.176;6.540;2023-03-21T04:48:46;19.73;;;8.07;;
52450;SDS011;38366;53.176;6.540;2023-03-21T04:51:13;22.08;;;8.45;;
52450;SDS011;38366;53.176;6.540;2023-03-21T04:53:40;16.50;;;6.70;;
52450;SDS011;38366;53.176;6.540;2023-03-21T04:56:09;18.00;;;7.03;;
52450;SDS011;38366;53.176;6.540;2023-03-21T04:58:36;22.20;;;7.55;;
52450;SDS011;38366;53.176;6.540;2023-03-21T05:01:02;19.77;;;7.38;;
52450;SDS011;38366;53.176;6.540;2023-03-21T05:03:30;20.92;;;7.43;;
52450;SDS011;38366;53.176;6.540;2023-03-21T05:05:58;18.60;;;7.60;;
52450;SDS011;38366;53.176;6.540;2023-03-21T05:08:25;13.25;;;5.32;;
52450;SDS011;38366;53.176;6.540;2023-03-21T05:10:51;17.80;;;7.53;;
52450;SDS011;38366;53.176;6.540;2023-03-21T05:13:17;19.60;;;8.25;;
52450;SDS011;38366;53.176;6.540;2023-03-21T05:15:42;25.23;;;8.27;;
52450;SDS011;38366;53.176;6.540;2023-03-21T05:18:08;20.63;;;8.20;;
52450;SDS011;38366;53.176;6.540;2023-03-21T05:20:37;21.85;;;8.25;;
52450;SDS011;38366;53.176;6.540;2023-03-21T05:23:10;24.25;;;8.77;;
52450;SDS011;38366;53.176;6.540;2023-03-21T05:25:37;23.92;;;7.43;;
52450;SDS011;38366;53.176;6.540;2023-03-21T05:28:04;21.85;;;8.82;;
52450;SDS011;38366;53.176;6.540;2023-03-21T05:30:31;26.65;;;8.57;;
52450;SDS011;38366;53.176;6.540;2023-03-21T05:32:58;22.05;;;7.60;;
52450;SDS011;38366;53.176;6.540;2023-03-21T05:35:24;23.92;;;8.80;;
52450;SDS011;38366;53.176;6.540;2023-03-21T05:37:50;27.67;;;9.90;;
52450;SDS011;38366;53.176;6.540;2023-03-21T05:40:17;30.35;;;9.20;;
52450;SDS011;38366;53.176;6.540;2023-03-21T05:42:44;19.55;;;8.40;;
52450;SDS011;38366;53.176;6.540;2023-03-21T05:45:11;29.23;;;9.15;;
52450;SDS011;38366;53.176;6.540;2023-03-21T05:47:37;28.80;;;9.73;;
52450;SDS011;38366;53.176;6.540;2023-03-21T05:50:03;30.40;;;9.20;;
52450;SDS011;38366;53.176;6.540;2023-03-21T05:52:29;20.20;;;7.60;;
52450;SDS011;38366;53.176;6.540;2023-03-21T05:54:55;23.58;;;8.48;;
52450;SDS011;38366;53.176;6.540;2023-03-21T05:57:21;21.00;;;7.57;;
52450;SDS011;38366;53.176;6.540;2023-03-21T05:59:47;21.85;;;7.28;;
52450;SDS011;38366;53.176;6.540;2023-03-21T06:02:12;17.60;;;6.63;;
52450;SDS011;38366;53.176;6.540;2023-03-21T06:04:39;19.77;;;7.32;;
52450;SDS011;38366;53.176;6.540;2023-03-21T06:07:05;16.60;;;7.18;;
52450;SDS011;38366;53.176;6.540;2023-03-21T06:09:31;17.97;;;6.30;;
52450;SDS011;38366;53.176;6.540;2023-03-21T06:11:58;19.70;;;7.18;;
52450;SDS011;38366;53.176;6.540;2023-03-21T06:14:24;18.30;;;7.30;;
52450;SDS011;38366;53.176;6.540;2023-03-21T06:16:50;19.55;;;8.18;;
52450;SDS011;38366;53.176;6.540;2023-03-21T06:19:18;15.32;;;6.40;;
52450;SDS011;38366;53.176;6.540;2023-03-21T06:21:45;21.65;;;8.30;;
52450;SDS011;38366;53.176;6.540;2023-03-21T06:24:11;19.77;;;7.40;;
52450;SDS011;38366;53.176;6.540;2023-03-21T06:26:37;19.30;;;7.57;;
52450;SDS011;38366;53.176;6.540;2023-03-21T06:29:03;19.92;;;7.85;;
52450;SDS011;38366;53.176;6.540;2023-03-21T06:31:29;17.45;;;7.22;;
52450;SDS011;38366;53.176;6.540;2023-03-21T06:33:55;18.17;;;7.15;;
52450;SDS011;38366;53.176;6.540;2023-03-21T06:36:21;19.70;;;7.30;;
52450;SDS011;38366;53.176;6.540;2023-03-21T06:38:47;19.63;;;7.25;;
52450;SDS011;38366;53.176;6.540;2023-03-21T06:41:13;19.25;;;7.95;;
52450;SDS011;38366;53.176;6.540;2023-03-21T06:43:40;14.82;;;6.47;;
52450;SDS011;38366;53.176;6.540;2023-03-21T06:46:05;19.67;;;7.68;;
52450;SDS011;38366;53.176;6.540;2023-03-21T06:48:31;14.38;;;6.50;;
52450;SDS011;38366;53.176;6.540;2023-03-21T06:50:57;17.25;;;7.53;;
52450;SDS011;38366;53.176;6.540;2023-03-21T06:53:23;17.88;;;7.22;;
52450;SDS011;38366;53.176;6.540;2023-03-21T06:55:52;15.70;;;7.32;;
52450;SDS011;38366;53.176;6.540;2023-03-21T06:58:18;17.60;;;7.75;;
52450;SDS011;38366;53.176;6.540;2023-03-21T07:00:45;19.00;;;8.60;;
52450;SDS011;38366;53.176;6.540;2023-03-21T07:03:11;18.13;;;7.50;;
52450;SDS011;38366;53.176;6.540;2023-03-21T07:05:38;18.27;;;6.78;;
52450;SDS011;38366;53.176;6.540;2023-03-21T07:08:05;22.02;;;8.32;;
52450;SDS011;38366;53.176;6.540;2023-03-21T07:10:37;18.25;;;7.60;;
52450;SDS011;38366;53.176;6.540;2023-03-21T07:13:03;16.70;;;6.82;;
52450;SDS011;38366;53.176;6.540;2023-03-21T07:15:29;19.65;;;7.53;;
52450;SDS011;38366;53.176;6.540;2023-03-21T07:17:57;17.38;;;7.25;;
52450;SDS011;38366;53.176;6.540;2023-03-21T07:20:23;14.88;;;7.30;;
52450;SDS011;38366;53.176;6.540;2023-03-21T07:22:50;15.27;;;7.07;;
52450;SDS011;38366;53.176;6.540;2023-03-21T07:25:16;16.17;;;7.00;;
52450;SDS011;38366;53.176;6.540;2023-03-21T07:27:44;16.98;;;7.28;;
52450;SDS011;38366;53.176;6.540;2023-03-21T07:32:36;17.75;;;7.00;;
52450;SDS011;38366;53.176;6.540;2023-03-21T07:35:02;13.40;;;6.00;;
52450;SDS011;38366;53.176;6.540;2023-03-21T07:37:29;15.82;;;6.88;;
52450;SDS011;38366;53.176;6.540;2023-03-21T07:39:54;13.53;;;6.73;;
52450;SDS011;38366;53.176;6.540;2023-03-21T07:42:20;11.57;;;5.83;;
52450;SDS011;38366;53.176;6.540;2023-03-21T07:44:46;12.93;;;6.13;;
52450;SDS011;38366;53.176;6.540;2023-03-21T07:47:11;8.65;;;4.28;;
52450;SDS011;38366;53.176;6.540;2023-03-21T07:49:37;8.93;;;4.38;;
52450;SDS011;38366;53.176;6.540;2023-03-21T07:52:03;8.63;;;4.50;;
52450;SDS011;38366;53.176;6.540;2023-03-21T07:54:30;8.23;;;4.70;;
52450;SDS011;38366;53.176;6.540;2023-03-21T07:56:56;10.73;;;5.10;;
52450;SDS011;38366;53.176;6.540;2023-03-21T07:59:22;10.18;;;5.35;;
52450;SDS011;38366;53.176;6.540;2023-03-21T08:01:47;9.65;;;4.30;;
52450;SDS011;38366;53.176;6.540;2023-03-21T08:04:13;11.05;;;5.53;;
52450;SDS011;38366;53.176;6.540;2023-03-21T08:06:39;9.13;;;4.90;;
52450;SDS011;38366;53.176;6.540;2023-03-21T08:09:05;8.90;;;4.25;;
52450;SDS011;38366;53.176;6.540;2023-03-21T08:11:31;9.07;;;4.85;;
52450;SDS011;38366;53.176;6.540;2023-03-21T08:13:57;9.00;;;4.57;;
52450;SDS011;38366;53.176;6.540;2023-03-21T08:16:24;6.30;;;3.70;;
52450;SDS011;38366;53.176;6.540;2023-03-21T08:18:50;9.30;;;4.60;;
52450;SDS011;38366;53.176;6.540;2023-03-21T08:21:15;8.70;;;4.60;;
52450;SDS011;38366;53.176;6.540;2023-03-21T08:23:41;7.85;;;4.47;;
52450;SDS011;38366;53.176;6.540;2023-03-21T08:26:07;7.57;;;4.10;;
52450;SDS011;38366;53.176;6.540;2023-03-21T08:28:33;8.68;;;4.40;;
52450;SDS011;38366;53.176;6.540;2023-03-21T08:31:05;7.20;;;4.18;;
52450;SDS011;38366;53.176;6.540;2023-03-21T08:33:31;5.93;;;3.50;;
52450;SDS011;38366;53.176;6.540;2023-03-21T08:36:00;7.95;;;3.88;;
52450;SDS011;38366;53.176;6.540;2023-03-21T08:38:26;8.32;;;4.15;;
52450;SDS011;38366;53.176;6.540;2023-03-21T08:40:58;6.57;;;3.85;;
52450;SDS011;38366;53.176;6.540;2023-03-21T08:43:25;7.20;;;3.72;;
52450;SDS011;38366;53.176;6.540;2023-03-21T08:45:51;6.45;;;3.40;;
52450;SDS011;38366;53.176;6.540;2023-03-21T08:48:17;6.20;;;3.58;;
52450;SDS011;38366;53.176;6.540;2023-03-21T08:50:43;8.15;;;3.97;;
52450;SDS011;38366;53.176;6.540;2023-03-21T08:53:09;6.22;;;3.33;;
52450;SDS011;38366;53.176;6.540;2023-03-21T08:55:35;7.15;;;3.60;;
52450;SDS011;38366;53.176;6.540;2023-03-21T08:58:00;6.40;;;3.58;;
52450;SDS011;38366;53.176;6.540;2023-03-21T09:00:26;6.15;;;3.72;;
52450;SDS011;38366;53.176;6.540;2023-03-21T09:02:52;7.22;;;4.28;;
52450;SDS011;38366;53.176;6.540;2023-03-21T09:05:20;9.38;;;4.50;;
52450;SDS011;38366;53.176;6.540;2023-03-21T09:07:46;8.25;;;4.45;;
52450;SDS011;38366;53.176;6.540;2023-03-21T09:10:17;7.85;;;4.47;;
52450;SDS011;38366;53.176;6.540;2023-03-21T09:12:45;6.63;;;3.97;;
52450;SDS011;38366;53.176;6.540;2023-03-21T09:15:12;13.90;;;6.03;;
52450;SDS011;38366;53.176;6.540;2023-03-21T09:17:39;12.80;;;6.45;;
52450;SDS011;38366;53.176;6.540;2023-03-21T09:20:11;14.30;;;5.93;;
52450;SDS011;38366;53.176;6.540;2023-03-21T09:22:45;11.38;;;5.43;;
52450;SDS011;38366;53.176;6.540;2023-03-21T09:25:13;14.65;;;6.82;;
52450;SDS011;38366;53.176;6.540;2023-03-21T09:27:40;13.50;;;5.70;;
52450;SDS011;38366;53.176;6.540;2023-03-21T09:30:09;16.52;;;7.35;;
52450;SDS011;38366;53.176;6.540;2023-03-21T09:35:01;13.63;;;6.75;;
52450;SDS011;38366;53.176;6.540;2023-03-21T09:37:31;15.77;;;8.27;;
52450;SDS011;38366;53.176;6.540;2023-03-21T09:39:57;18.40;;;8.88;;
52450;SDS011;38366;53.176;6.540;2023-03-21T09:47:46;14.30;;;8.38;;
52450;SDS011;38366;53.176;6.540;2023-03-21T09:53:19;13.02;;;7.55;;
52450;SDS011;38366;53.176;6.540;2023-03-21T09:55:49;13.73;;;7.28;;
52450;SDS011;38366;53.176;6.540;2023-03-21T09:58:37;15.60;;;7.25;;
52450;SDS011;38366;53.176;6.540;2023-03-21T10:01:14;18.95;;;9.80;;
52450;SDS011;38366;53.176;6.540;2023-03-21T10:03:52;15.32;;;8.57;;
52450;SDS011;38366;53.176;6.540;2023-03-21T10:06:21;19.35;;;9.00;;
52450;SDS011;38366;53.176;6.540;2023-03-21T10:08:53;16.58;;;9.18;;
52450;SDS011;38366;53.176;6.540;2023-03-21T10:11:30;17.60;;;10.30;;
52450;SDS011;38366;53.176;6.540;2023-03-21T10:14:06;20.85;;;9.70;;
52450;SDS011;38366;53.176;6.540;2023-03-21T10:17:00;19.27;;;10.05;;
52450;SDS011;38366;53.176;6.540;2023-03-21T10:19:48;18.92;;;9.75;;
52450;SDS011;38366;53.176;6.540;2023-03-21T10:22:20;23.23;;;10.82;;
52450;SDS011;38366;53.176;6.540;2023-03-21T10:24:45;18.50;;;8.97;;
52450;SDS011;38366;53.176;6.540;2023-03-21T10:27:11;21.52;;;11.35;;
52450;SDS011;38366;53.176;6.540;2023-03-21T10:29:42;23.70;;;12.23;;
52450;SDS011;38366;53.176;6.540;2023-03-21T10:32:10;25.98;;;12.30;;
52450;SDS011;38366;53.176;6.540;2023-03-21T10:34:42;23.83;;;12.25;;
52450;SDS011;38366;53.176;6.540;2023-03-21T10:37:09;20.88;;;11.20;;
52450;SDS011;38366;53.176;6.540;2023-03-21T10:39:36;16.58;;;7.93;;
52450;SDS011;38366;53.176;6.540;2023-03-21T10:42:03;19.60;;;9.25;;
52450;SDS011;38366;53.176;6.540;2023-03-21T10:44:33;22.63;;;11.38;;
52450;SDS011;38366;53.176;6.540;2023-03-21T10:47:05;22.23;;;11.77;;
52450;SDS011;38366;53.176;6.540;2023-03-21T10:49:32;22.95;;;11.30;;
52450;SDS011;38366;53.176;6.540;2023-03-21T10:52:09;19.85;;;9.52;;
52450;SDS011;38366;53.176;6.540;2023-03-21T10:54:35;22.50;;;10.73;;
52450;SDS011;38366;53.176;6.540;2023-03-21T10:57:09;26.15;;;11.40;;
52450;SDS011;38366;53.176;6.540;2023-03-21T11:02:38;19.00;;;9.25;;
52450;SDS011;38366;53.176;6.540;2023-03-21T11:05:05;18.20;;;8.40;;
52450;SDS011;38366;53.176;6.540;2023-03-21T11:07:38;21.02;;;8.80;;
52450;SDS011;38366;53.176;6.540;2023-03-21T11:10:24;19.13;;;9.82;;
52450;SDS011;38366;53.176;6.540;2023-03-21T11:13:02;17.98;;;8.85;;
52450;SDS011;38366;53.176;6.540;2023-03-21T11:15:33;18.58;;;9.18;;
52450;SDS011;38366;53.176;6.540;2023-03-21T11:18:17;13.45;;;7.60;;
52450;SDS011;38366;53.176;6.540;2023-03-21T11:20:47;19.15;;;8.73;;
52450;SDS011;38366;53.176;6.540;2023-03-21T11:23:30;18.63;;;8.77;;
52450;SDS011;38366;53.176;6.540;2023-03-21T11:25:59;19.33;;;7.97;;
52450;SDS011;38366;53.176;6.540;2023-03-21T11:28:36;17.88;;;7.97;;
52450;SDS011;38366;53.176;6.540;2023-03-21T11:31:04;16.25;;;7.63;;
52450;SDS011;38366;53.176;6.540;2023-03-21T11:33:54;13.85;;;7.30;;
52450;SDS011;38366;53.176;6.540;2023-03-21T11:38:51;16.27;;;6.77;;
52450;SDS011;38366;53.176;6.540;2023-03-21T11:41:30;10.10;;;5.15;;
52450;SDS011;38366;53.176;6.540;2023-03-21T11:43:58;16.40;;;8.07;;
52450;SDS011;38366;53.176;6.540;2023-03-21T11:46:29;15.43;;;7.68;;
52450;SDS011;38366;53.176;6.540;2023-03-21T11:48:56;14.43;;;6.60;;
52450;SDS011;38366;53.176;6.540;2023-03-21T11:54:34;19.10;;;8.15;;
52450;SDS011;38366;53.176;6.540;2023-03-21T11:59:47;17.50;;;6.20;;
52450;SDS011;38366;53.176;6.540;2023-03-21T12:05:15;25.00;;;5.90;;
52450;SDS011;38366;53.176;6.540;2023-03-21T12:07:56;11.65;;;5.45;;
52450;SDS011;38366;53.176;6.540;2023-03-21T12:16:10;14.32;;;6.88;;
52450;SDS011;38366;53.176;6.540;2023-03-21T12:27:05;10.70;;;5.25;;
52450;SDS011;38366;53.176;6.540;2023-03-21T12:29:49;9.45;;;5.60;;
52450;SDS011;38366;53.176;6.540;2023-03-21T12:45:40;11.55;;;5.32;;
52450;SDS011;38366;53.176;6.540;2023-03-21T12:48:21;11.80;;;5.00;;
52450;SDS011;38366;53.176;6.540;2023-03-21T12:50:54;11.93;;;6.05;;
52450;SDS011;38366;53.176;6.540;2023-03-21T12:53:34;9.80;;;5.03;;
52450;SDS011;38366;53.176;6.540;2023-03-21T12:56:12;15.82;;;6.97;;
52450;SDS011;38366;53.176;6.540;2023-03-21T12:58:47;14.55;;;6.75;;
52450;SDS011;38366;53.176;6.540;2023-03-21T13:01:22;8.63;;;5.85;;
52450;SDS011;38366;53.176;6.540;2023-03-21T13:03:51;9.55;;;5.00;;
52450;SDS011;38366;53.176;6.540;2023-03-21T13:06:52;13.45;;;5.95;;
52450;SDS011;38366;53.176;6.540;2023-03-21T13:09:34;9.48;;;5.38;;
52450;SDS011;38366;53.176;6.540;2023-03-21T13:12:04;13.35;;;6.53;;
52450;SDS011;38366;53.176;6.540;2023-03-21T13:15:07;10.85;;;5.38;;
52450;SDS011;38366;53.176;6.540;2023-03-21T13:17:44;14.30;;;5.63;;
52450;SDS011;38366;53.176;6.540;2023-03-21T13:20:21;8.95;;;4.80;;
52450;SDS011;38366;53.176;6.540;2023-03-21T13:22:53;9.98;;;5.35;;
52450;SDS011;38366;53.176;6.540;2023-03-21T13:25:22;12.98;;;5.80;;
52450;SDS011;38366;53.176;6.540;2023-03-21T13:27:53;9.82;;;4.85;;
52450;SDS011;38366;53.176;6.540;2023-03-21T13:30:27;7.32;;;4.95;;
52450;SDS011;38366;53.176;6.540;2023-03-21T13:33:01;10.90;;;5.32;;
52450;SDS011;38366;53.176;6.540;2023-03-21T13:35:35;10.98;;;5.03;;
52450;SDS011;38366;53.176;6.540;2023-03-21T13:40:47;12.85;;;4.80;;
52450;SDS011;38366;53.176;6.540;2023-03-21T13:46:42;10.80;;;5.47;;
52450;SDS011;38366;53.176;6.540;2023-03-21T13:49:24;15.30;;;6.78;;
52450;SDS011;38366;53.176;6.540;2023-03-21T13:59:16;7.50;;;4.50;;
52450;SDS011;38366;53.176;6.540;2023-03-21T14:01:59;15.05;;;6.50;;
52450;SDS011;38366;53.176;6.540;2023-03-21T14:04:37;11.55;;;5.50;;
52450;SDS011;38366;53.176;6.540;2023-03-21T14:07:12;7.18;;;4.90;;
52450;SDS011;38366;53.176;6.540;2023-03-21T14:10:02;10.98;;;5.45;;
52450;SDS011;38366;53.176;6.540;2023-03-21T14:12:34;15.45;;;5.53;;
52450;SDS011;38366;53.176;6.540;2023-03-21T14:15:11;9.93;;;5.45;;
52450;SDS011;38366;53.176;6.540;2023-03-21T14:17:56;9.73;;;5.75;;
52450;SDS011;38366;53.176;6.540;2023-03-21T14:20:31;10.32;;;5.20;;
52450;SDS011;38366;53.176;6.540;2023-03-21T14:23:02;10.43;;;5.72;;
52450;SDS011;38366;53.176;6.540;2023-03-21T14:25:33;12.70;;;6.32;;
52450;SDS011;38366;53.176;6.540;2023-03-21T14:28:02;9.38;;;5.45;;
52450;SDS011;38366;53.176;6.540;2023-03-21T14:30:35;9.98;;;5.40;;
52450;SDS011;38366;53.176;6.540;2023-03-21T14:33:14;9.02;;;5.65;;
52450;SDS011;38366;53.176;6.540;2023-03-21T14:35:50;10.43;;;5.47;;
52450;SDS011;38366;53.176;6.540;2023-03-21T14:38:18;14.63;;;6.90;;
52450;SDS011;38366;53.176;6.540;2023-03-21T14:40:52;9.30;;;6.25;;
52450;SDS011;38366;53.176;6.540;2023-03-21T14:43:20;13.10;;;6.07;;
52450;SDS011;38366;53.176;6.540;2023-03-21T14:45:49;10.20;;;5.70;;
52450;SDS011;38366;53.176;6.540;2023-03-21T14:48:19;11.35;;;4.78;;
52450;SDS011;38366;53.176;6.540;2023-03-21T14:50:53;10.40;;;5.53;;
52450;SDS011;38366;53.176;6.540;2023-03-21T14:53:21;10.00;;;5.43;;
52450;SDS011;38366;53.176;6.540;2023-03-21T14:56:01;11.07;;;5.78;;
52450;SDS011;38366;53.176;6.540;2023-03-21T14:58:31;9.43;;;5.95;;
52450;SDS011;38366;53.176;6.540;2023-03-21T15:01:00;10.02;;;5.45;;
52450;SDS011;38366;53.176;6.540;2023-03-21T15:03:28;11.70;;;5.28;;
52450;SDS011;38366;53.176;6.540;2023-03-21T15:05:55;14.80;;;6.75;;
52450;SDS011;38366;53.176;6.540;2023-03-21T15:08:22;11.85;;;6.85;;
52450;SDS011;38366;53.176;6.540;2023-03-21T15:10:54;8.18;;;5.78;;
52450;SDS011;38366;53.176;6.540;2023-03-21T15:13:21;10.65;;;5.30;;
52450;SDS011;38366;53.176;6.540;2023-03-21T15:15:50;9.65;;;5.60;;
52450;SDS011;38366;53.176;6.540;2023-03-21T15:18:26;13.63;;;7.00;;
52450;SDS011;38366;53.176;6.540;2023-03-21T15:20:57;10.10;;;4.88;;
52450;SDS011;38366;53.176;6.540;2023-03-21T15:23:32;10.95;;;5.00;;
52450;SDS011;38366;53.176;6.540;2023-03-21T15:26:04;11.85;;;5.47;;
52450;SDS011;38366;53.176;6.540;2023-03-21T15:28:31;10.07;;;5.20;;
52450;SDS011;38366;53.176;6.540;2023-03-21T15:30:58;13.98;;;6.53;;
52450;SDS011;38366;53.176;6.540;2023-03-21T15:33:25;12.55;;;6.22;;
52450;SDS011;38366;53.176;6.540;2023-03-21T15:35:58;13.20;;;6.18;;
52450;SDS011;38366;53.176;6.540;2023-03-21T15:38:40;13.90;;;5.85;;
52450;SDS011;38366;53.176;6.540;2023-03-21T15:41:28;11.95;;;6.85;;
52450;SDS011;38366;53.176;6.540;2023-03-21T15:46:40;14.77;;;6.32;;
52450;SDS011;38366;53.176;6.540;2023-03-21T15:51:45;19.30;;;6.38;;
52450;SDS011;38366;53.176;6.540;2023-03-21T15:54:22;17.38;;;7.63;;
52450;SDS011;38366;53.176;6.540;2023-03-21T15:57:01;10.57;;;6.53;;
52450;SDS011;38366;53.176;6.540;2023-03-21T15:59:38;12.30;;;6.32;;
52450;SDS011;38366;53.176;6.540;2023-03-21T16:02:13;11.95;;;5.82;;
52450;SDS011;38366;53.176;6.540;2023-03-21T16:04:54;15.15;;;6.78;;
52450;SDS011;38366;53.176;6.540;2023-03-21T16:07:23;12.18;;;5.40;;
52450;SDS011;38366;53.176;6.540;2023-03-21T16:09:49;14.43;;;6.03;;
52450;SDS011;38366;53.176;6.540;2023-03-21T16:12:23;10.20;;;6.47;;
52450;SDS011;38366;53.176;6.540;2023-03-21T16:14:48;10.38;;;7.22;;
52450;SDS011;38366;53.176;6.540;2023-03-21T16:17:26;13.85;;;6.25;;
52450;SDS011;38366;53.176;6.540;2023-03-21T16:20:09;11.27;;;7.30;;
52450;SDS011;38366;53.176;6.540;2023-03-21T16:22:44;17.70;;;7.82;;
52450;SDS011;38366;53.176;6.540;2023-03-21T16:25:10;15.13;;;7.30;;
52450;SDS011;38366;53.176;6.540;2023-03-21T16:27:36;13.75;;;7.45;;
52450;SDS011;38366;53.176;6.540;2023-03-21T16:30:01;12.90;;;6.95;;
52450;SDS011;38366;53.176;6.540;2023-03-21T16:32:28;15.85;;;7.50;;
52450;SDS011;38366;53.176;6.540;2023-03-21T16:34:53;16.38;;;7.30;;
52450;SDS011;38366;53.176;6.540;2023-03-21T16:37:20;16.25;;;7.78;;
52450;SDS011;38366;53.176;6.540;2023-03-21T16:39:46;16.00;;;8.45;;
52450;SDS011;38366;53.176;6.540;2023-03-21T16:42:12;15.93;;;8.35;;
52450;SDS011;38366;53.176;6.540;2023-03-21T16:44:38;16.90;;;8.70;;
52450;SDS011;38366;53.176;6.540;2023-03-21T16:47:20;15.73;;;9.13;;
52450;SDS011;38366;53.176;6.540;2023-03-21T16:49:48;18.98;;;9.57;;
52450;SDS011;38366;53.176;6.540;2023-03-21T16:52:14;16.60;;;9.98;;